createdAt,value
2018-08-23T00:02:09.523Z,38.77
2018-08-23T00:04:38.399Z,38.76
2018-08-23T00:07:05.078Z,38.60
2018-08-23T00:09:29.753Z,38.54
2018-08-23T00:11:57.778Z,38.35
2018-08-23T00:14:23.077Z,38.40
2018-08-23T00:16:49.840Z,38.23
2018-08-23T00:19:16.524Z,38.24
2018-08-23T00:21:43.211Z,38.08
2018-08-23T00:24:09.945Z,38.14
2018-08-23T00:26:36.611Z,38.00
2018-08-23T00:29:03.275Z,37.97
2018-08-23T00:31:30.002Z,37.96
2018-08-23T00:33:56.905Z,37.85
2018-08-23T00:36:23.584Z,37.89
2018-08-23T00:38:50.240Z,37.84
2018-08-23T00:41:16.970Z,37.78
2018-08-23T00:43:43.655Z,37.88
2018-08-23T00:46:10.310Z,37.75
2018-08-23T00:48:36.961Z,37.78
2018-08-23T00:51:03.729Z,37.73
2018-08-23T00:53:30.529Z,37.73
2018-08-23T00:55:57.155Z,37.65
2018-08-23T00:58:23.843Z,37.60
2018-08-23T01:00:50.583Z,37.68
2018-08-23T01:03:17.200Z,37.60
2018-08-23T01:05:43.862Z,37.63
2018-08-23T01:08:10.509Z,37.65
2018-08-23T01:10:37.238Z,37.61
2018-08-23T01:13:03.904Z,37.57
2018-08-23T01:15:30.586Z,37.57
2018-08-23T01:17:57.198Z,37.62
2018-08-23T01:20:23.927Z,37.47
2018-08-23T01:22:50.668Z,37.46
2018-08-23T01:25:17.364Z,37.43
2018-08-23T01:27:44.020Z,37.50
2018-08-23T01:30:10.728Z,37.40
2018-08-23T01:32:40.481Z,37.28
2018-08-23T01:35:07.240Z,37.36
2018-08-23T01:37:33.928Z,37.36
2018-08-23T01:40:01.698Z,37.20
2018-08-23T01:42:27.380Z,37.22
2018-08-23T01:44:54.142Z,37.17
2018-08-23T01:47:20.810Z,37.11
2018-08-23T01:49:47.514Z,37.13
2018-08-23T01:52:14.161Z,37.04
2018-08-23T01:54:40.857Z,36.92
2018-08-23T01:57:07.542Z,37.02
2018-08-23T01:59:39.921Z,36.94
2018-08-23T02:02:06.642Z,37.00
2018-08-23T02:04:33.605Z,36.91
2018-08-23T02:07:00.351Z,36.95
2018-08-23T02:09:27.053Z,36.93
2018-08-23T02:11:53.673Z,36.73
2018-08-23T02:14:20.316Z,36.77
2018-08-23T02:16:46.979Z,36.61
2018-08-23T02:19:13.640Z,36.60
2018-08-23T02:21:40.357Z,36.60
2018-08-23T02:24:07.028Z,36.62
2018-08-23T02:26:33.681Z,36.54
2018-08-23T02:29:00.347Z,36.42
2018-08-23T02:31:27.049Z,36.41
2018-08-23T02:33:53.718Z,36.47
2018-08-23T02:36:20.353Z,36.44
2018-08-23T02:38:47.031Z,36.40
2018-08-23T02:41:13.753Z,36.42
2018-08-23T02:43:40.414Z,36.38
2018-08-23T02:46:07.167Z,36.35
2018-08-23T02:48:36.964Z,36.38
2018-08-23T02:51:03.598Z,36.42
2018-08-23T02:53:30.259Z,36.30
2018-08-23T02:55:56.948Z,36.30
2018-08-23T02:58:23.617Z,36.39
2018-08-23T03:00:51.638Z,36.35
2018-08-23T03:03:17.051Z,36.31
2018-08-23T03:05:43.702Z,36.36
2018-08-23T03:08:10.359Z,36.02
2018-08-23T03:10:37.199Z,36.21
2018-08-23T03:13:03.894Z,35.68
2018-08-23T03:15:30.555Z,35.93
2018-08-23T03:17:57.294Z,35.86
2018-08-23T03:20:23.990Z,35.63
2018-08-23T03:22:50.652Z,35.78
2018-08-23T03:25:17.524Z,35.79
2018-08-23T03:27:45.954Z,35.82
2018-08-23T03:30:12.546Z,35.94
2018-08-23T03:32:37.568Z,36.09
2018-08-23T03:35:04.231Z,36.10
2018-08-23T03:37:33.939Z,35.94
2018-08-23T03:40:00.593Z,35.84
2018-08-23T03:42:27.298Z,35.81
2018-08-23T03:44:53.959Z,35.66
2018-08-23T03:47:20.614Z,35.50
2018-08-23T03:49:47.257Z,35.71
2018-08-23T03:52:13.963Z,35.88
2018-08-23T03:54:43.240Z,36.03
2018-08-23T03:57:07.466Z,36.00
2018-08-23T03:59:34.205Z,35.53
2018-08-23T04:02:00.890Z,35.66
2018-08-23T04:04:27.555Z,35.61
2018-08-23T04:06:56.383Z,35.65
2018-08-23T04:09:23.009Z,35.80
2018-08-23T04:11:49.727Z,35.40
2018-08-23T04:14:16.432Z,35.37
2018-08-23T04:16:43.203Z,35.29
2018-08-23T04:19:09.832Z,35.21
2018-08-23T04:21:36.504Z,35.33
2018-08-23T04:24:03.169Z,35.29
2018-08-23T04:26:29.854Z,35.25
2018-08-23T04:28:56.778Z,35.37
2018-08-23T04:31:23.468Z,35.46
2018-08-23T04:33:50.167Z,35.42
2018-08-23T04:36:16.820Z,34.91
2018-08-23T04:38:43.486Z,34.16
2018-08-23T04:41:10.183Z,33.96
2018-08-23T04:43:36.900Z,33.91
2018-08-23T04:46:03.663Z,34.47
2018-08-23T04:48:30.315Z,34.78
2018-08-23T04:50:57.027Z,34.89
2018-08-23T04:53:23.689Z,34.89
2018-08-23T04:55:50.403Z,34.72
2018-08-23T04:58:17.053Z,34.68
2018-08-23T05:00:43.691Z,34.61
2018-08-23T05:03:10.410Z,34.47
2018-08-23T05:05:37.101Z,34.33
2018-08-23T05:08:03.809Z,34.26
2018-08-23T05:10:30.443Z,34.38
2018-08-23T05:12:58.140Z,34.30
2018-08-23T05:15:24.798Z,34.24
2018-08-23T05:17:54.470Z,34.72
2018-08-23T05:20:21.164Z,35.26
2018-08-23T05:22:47.869Z,34.80
2018-08-23T05:25:16.504Z,34.93
2018-08-23T05:27:41.189Z,34.59
2018-08-23T05:30:07.887Z,34.19
2018-08-23T05:32:34.564Z,34.36
2018-08-23T05:35:01.213Z,34.15
2018-08-23T05:37:27.929Z,34.33
2018-08-23T05:39:55.597Z,34.29
2018-08-23T05:42:22.337Z,34.15
2018-08-23T05:44:48.961Z,34.18
2018-08-23T05:47:15.593Z,33.98
2018-08-23T05:49:42.255Z,33.92
2018-08-23T05:52:08.889Z,33.81
2018-08-23T05:54:35.543Z,33.67
2018-08-23T05:57:02.293Z,33.71
2018-08-23T05:59:28.940Z,33.37
2018-08-23T06:01:55.613Z,33.14
2018-08-23T06:04:23.299Z,33.20
2018-08-23T06:06:48.962Z,33.14
2018-08-23T06:09:15.672Z,33.18
2018-08-23T06:11:42.568Z,32.99
2018-08-23T06:14:09.271Z,32.98
2018-08-23T06:16:35.916Z,33.12
2018-08-23T06:19:03.931Z,33.23
2018-08-23T06:21:29.590Z,33.43
2018-08-23T06:23:56.237Z,33.52
2018-08-23T06:26:22.943Z,33.74
2018-08-23T06:28:49.605Z,33.80
2018-08-23T06:31:16.343Z,33.84
2018-08-23T06:33:43.096Z,33.92
2018-08-23T06:36:09.656Z,33.99
2018-08-23T06:38:36.343Z,34.15
2018-08-23T06:41:02.983Z,34.10
2018-08-23T06:43:29.635Z,34.21
2018-08-23T06:45:56.475Z,34.12
2018-08-23T06:48:23.657Z,34.23
2018-08-23T06:50:51.750Z,34.30
2018-08-23T06:53:16.947Z,34.28
2018-08-23T06:55:43.676Z,34.40
2018-08-23T06:58:10.449Z,34.35
2018-08-23T07:00:37.130Z,34.41
2018-08-23T07:03:03.764Z,34.48
2018-08-23T07:05:30.468Z,34.55
2018-08-23T07:07:57.078Z,34.58
2018-08-23T07:10:23.784Z,34.56
2018-08-23T07:12:50.422Z,34.58
2018-08-23T07:15:17.126Z,34.68
2018-08-23T07:17:43.971Z,34.71
2018-08-23T07:20:10.465Z,34.70
2018-08-23T07:22:37.097Z,34.71
2018-08-23T07:25:03.771Z,34.70
2018-08-23T07:27:30.403Z,34.82
2018-08-23T07:29:57.153Z,34.79
2018-08-23T07:32:23.791Z,34.74
2018-08-23T07:34:53.880Z,34.71
2018-08-23T07:37:20.619Z,34.44
2018-08-23T07:39:47.634Z,34.52
2018-08-23T07:42:15.354Z,34.54
2018-08-23T07:44:42.056Z,34.43
2018-08-23T07:47:08.719Z,34.54
2018-08-23T07:49:35.361Z,34.54
2018-08-23T07:52:02.073Z,34.39
2018-08-23T07:54:28.744Z,34.42
2018-08-23T07:56:55.432Z,34.59
2018-08-23T07:59:22.130Z,34.61
2018-08-23T08:01:48.771Z,34.42
2018-08-23T08:04:18.268Z,34.30
2018-08-23T08:06:45.005Z,34.42
2018-08-23T08:09:11.640Z,34.48
2018-08-23T08:11:38.314Z,34.38
2018-08-23T08:14:05.057Z,34.48
2018-08-23T08:16:31.767Z,34.89
2018-08-23T08:18:58.462Z,34.60
2018-08-23T08:21:25.111Z,34.77
2018-08-23T08:23:51.898Z,34.53
2018-08-23T08:26:18.546Z,34.66
2018-08-23T08:28:45.195Z,35.06
2018-08-23T08:31:11.851Z,34.89
2018-08-23T08:33:38.603Z,34.89
2018-08-23T08:36:05.263Z,35.05
2018-08-23T08:38:31.905Z,35.15
2018-08-23T08:40:58.714Z,35.40
2018-08-23T08:43:25.407Z,35.09
2018-08-23T08:45:52.120Z,34.60
2018-08-23T08:48:18.849Z,34.70
2018-08-23T08:50:45.450Z,35.35
2018-08-23T08:53:12.211Z,35.09
2018-08-23T08:55:43.492Z,34.91
2018-08-23T08:58:08.978Z,34.67
2018-08-23T09:00:35.680Z,34.97
2018-08-23T09:03:02.528Z,35.83
2018-08-23T09:05:29.185Z,36.07
2018-08-23T09:07:55.967Z,36.05
2018-08-23T09:10:22.572Z,35.97
2018-08-23T09:12:49.241Z,36.19
2018-08-23T09:15:17.240Z,36.45
2018-08-23T09:17:42.632Z,36.28
2018-08-23T09:20:09.242Z,36.71
2018-08-23T09:22:35.927Z,35.86
2018-08-23T09:25:02.562Z,35.08
2018-08-23T09:27:30.601Z,35.05
2018-08-23T09:29:55.897Z,35.15
2018-08-23T09:32:22.643Z,36.67
2018-08-23T09:34:49.334Z,37.05
2018-08-23T09:37:17.373Z,37.16
2018-08-23T09:39:42.693Z,36.17
2018-08-23T09:42:09.308Z,35.87
2018-08-23T09:44:36.444Z,35.67
2018-08-23T09:47:03.168Z,35.24
2018-08-23T09:49:29.813Z,35.04
2018-08-23T09:51:56.568Z,35.01
2018-08-23T09:54:23.309Z,34.79
2018-08-23T09:56:50.050Z,35.67
2018-08-23T09:59:16.685Z,36.51
2018-08-23T10:01:43.390Z,36.92
2018-08-23T10:04:10.190Z,36.99
2018-08-23T10:06:36.980Z,37.05
2018-08-23T10:09:03.758Z,36.65
2018-08-23T10:11:30.483Z,37.49
2018-08-23T10:13:57.066Z,36.55
2018-08-23T10:16:23.753Z,37.88
2018-08-23T10:18:50.466Z,37.44
2018-08-23T10:21:17.104Z,38.58
2018-08-23T10:23:43.810Z,38.10
2018-08-23T10:26:10.520Z,37.71
2018-08-23T10:28:37.145Z,38.01
2018-08-23T10:31:03.858Z,38.41
2018-08-23T10:33:30.616Z,38.80
2018-08-23T10:35:57.467Z,38.90
2018-08-23T10:38:24.148Z,38.42
2018-08-23T10:40:50.875Z,39.23
2018-08-23T10:43:20.700Z,39.29
2018-08-23T10:45:48.088Z,39.32
2018-08-23T10:48:14.801Z,38.84
2018-08-23T10:50:41.634Z,39.43
2018-08-23T10:53:08.274Z,39.33
2018-08-23T10:55:34.927Z,39.58
2018-08-23T10:58:01.628Z,39.53
2018-08-23T11:00:28.316Z,39.67
2018-08-23T11:02:55.055Z,39.47
2018-08-23T11:05:21.817Z,39.40
2018-08-23T11:07:48.526Z,38.92
2018-08-23T11:10:15.285Z,39.45
2018-08-23T11:12:41.943Z,38.85
2018-08-23T11:15:08.747Z,38.40
2018-08-23T11:17:35.480Z,38.30
2018-08-23T11:20:03.301Z,38.74
2018-08-23T11:22:31.207Z,38.50
2018-08-23T11:24:56.661Z,38.35
2018-08-23T11:27:26.173Z,38.51
2018-08-23T11:29:52.914Z,38.09
2018-08-23T11:32:19.629Z,38.12
2018-08-23T11:34:48.105Z,37.58
2018-08-23T11:37:13.253Z,38.31
2018-08-23T11:39:39.980Z,38.41
2018-08-23T11:42:06.662Z,38.41
2018-08-23T11:44:33.579Z,37.62
2018-08-23T11:47:01.488Z,37.19
2018-08-23T11:49:30.298Z,37.87
2018-08-23T11:51:58.082Z,38.31
2018-08-23T11:54:23.675Z,37.96
2018-08-23T11:56:50.416Z,38.41
2018-08-23T11:59:17.382Z,37.62
2018-08-23T12:01:44.003Z,37.48
2018-08-23T12:04:10.698Z,37.32
2018-08-23T12:06:37.461Z,38.05
2018-08-23T12:09:04.047Z,38.23
2018-08-23T12:11:30.799Z,38.56
2018-08-23T12:13:57.503Z,38.39
2018-08-23T12:16:24.244Z,38.22
2018-08-23T12:18:50.930Z,37.92
2018-08-23T12:21:17.814Z,36.97
2018-08-23T12:23:44.568Z,37.61
2018-08-23T12:26:14.504Z,37.83
2018-08-23T12:28:41.198Z,38.26
2018-08-23T12:31:07.887Z,38.22
2018-08-23T12:33:34.693Z,37.46
2018-08-23T12:36:01.398Z,37.32
2018-08-23T12:38:28.093Z,38.03
2018-08-23T12:40:55.231Z,38.06
2018-08-23T12:43:21.922Z,37.83
2018-08-23T12:45:48.691Z,37.44
2018-08-23T12:48:15.367Z,37.36
2018-08-23T12:50:42.013Z,37.53
2018-08-23T12:53:08.767Z,38.05
2018-08-23T12:55:37.059Z,37.60
2018-08-23T12:58:02.186Z,37.19
2018-08-23T13:00:28.877Z,36.70
2018-08-23T13:02:56.011Z,36.74
2018-08-23T13:05:26.656Z,37.50
2018-08-23T13:07:50.263Z,37.99
2018-08-23T13:10:17.115Z,37.67
2018-08-23T13:12:45.451Z,38.33
2018-08-23T13:15:10.514Z,37.84
2018-08-23T13:17:37.411Z,37.11
2018-08-23T13:20:04.237Z,38.40
2018-08-23T13:22:30.972Z,38.53
2018-08-23T13:24:57.636Z,38.60
2018-08-23T13:27:24.459Z,38.67
2018-08-23T13:29:51.090Z,38.56
2018-08-23T13:32:17.746Z,38.61
2018-08-23T13:34:46.640Z,37.72
2018-08-23T13:37:11.580Z,37.95
2018-08-23T13:39:38.235Z,37.39
2018-08-23T13:42:04.944Z,37.02
2018-08-23T13:44:31.651Z,36.62
2018-08-23T13:46:58.307Z,37.51
2018-08-23T13:49:25.012Z,37.67
2018-08-23T13:51:54.663Z,37.65
2018-08-23T13:54:21.329Z,38.14
2018-08-23T13:56:48.270Z,38.18
2018-08-23T13:59:14.982Z,37.60
2018-08-23T14:01:41.637Z,38.23
2018-08-23T14:04:08.461Z,38.10
2018-08-23T14:06:35.416Z,38.43
2018-08-23T14:09:02.241Z,38.18
2018-08-23T14:11:28.985Z,37.97
2018-08-23T14:13:55.837Z,37.74
2018-08-23T14:16:22.506Z,37.48
2018-08-23T14:18:49.216Z,37.24
2018-08-23T14:21:16.042Z,37.17
2018-08-23T14:23:42.822Z,36.98
2018-08-23T14:26:09.443Z,36.27
2018-08-23T14:28:36.152Z,36.83
2018-08-23T14:31:02.829Z,36.36
2018-08-23T14:33:29.535Z,36.15
2018-08-23T14:35:56.196Z,36.11
2018-08-23T14:38:23.062Z,35.89
2018-08-23T14:40:49.677Z,36.06
2018-08-23T14:43:16.503Z,36.40
2018-08-23T14:45:43.266Z,35.35
2018-08-23T14:48:09.977Z,35.95
2018-08-23T14:50:36.623Z,36.02
2018-08-23T14:53:03.322Z,36.08
2018-08-23T14:55:29.966Z,35.78
2018-08-23T14:57:56.619Z,35.43
2018-08-23T15:00:23.302Z,35.29
2018-08-23T15:02:49.969Z,35.62
2018-08-23T15:05:16.714Z,35.30
2018-08-23T15:07:43.938Z,35.36
2018-08-23T15:10:11.836Z,35.73
2018-08-23T15:12:37.244Z,35.14
2018-08-23T15:15:03.989Z,35.62
2018-08-23T15:17:30.625Z,35.52
2018-08-23T15:19:58.999Z,35.33
2018-08-23T15:22:24.110Z,35.33
2018-08-23T15:24:54.311Z,34.84
2018-08-23T15:27:18.708Z,35.13
2018-08-23T15:29:45.398Z,35.10
2018-08-23T15:32:12.112Z,34.79
2018-08-23T15:34:38.793Z,35.13
2018-08-23T15:37:05.493Z,34.93
2018-08-23T15:39:32.223Z,35.32
2018-08-23T15:41:58.788Z,35.83
2018-08-23T15:44:27.368Z,36.28
2018-08-23T15:46:54.185Z,36.31
2018-08-23T15:49:18.722Z,36.57
2018-08-23T15:51:45.417Z,36.75
2018-08-23T15:54:12.192Z,36.74
2018-08-23T15:56:41.663Z,36.81
2018-08-23T15:59:08.300Z,36.36
2018-08-23T16:01:34.945Z,36.82
2018-08-23T16:04:01.653Z,36.98
2018-08-23T16:06:28.252Z,38.21
2018-08-23T16:08:54.906Z,37.98
2018-08-23T16:11:21.626Z,37.50
2018-08-23T16:13:49.351Z,37.18
2018-08-23T16:16:16.568Z,36.94
2018-08-23T16:18:41.539Z,37.18
2018-08-23T16:21:08.206Z,37.20
2018-08-23T16:23:34.989Z,37.08
2018-08-23T16:26:01.624Z,36.61
2018-08-23T16:28:28.283Z,37.68
2018-08-23T16:30:54.923Z,38.01
2018-08-23T16:33:24.403Z,38.42
2018-08-23T16:35:51.047Z,38.03
2018-08-23T16:38:17.777Z,37.68
2018-08-23T16:40:44.619Z,37.55
2018-08-23T16:43:11.253Z,37.40
2018-08-23T16:45:37.898Z,37.43
2018-08-23T16:48:04.592Z,37.52
2018-08-23T16:50:31.379Z,37.36
2018-08-23T16:52:58.043Z,37.35
2018-08-23T16:55:24.660Z,37.05
2018-08-23T16:57:52.329Z,36.88
2018-08-23T17:00:18.974Z,37.93
2018-08-23T17:02:45.632Z,37.73
2018-08-23T17:05:12.279Z,38.16
2018-08-23T17:07:38.964Z,38.18
2018-08-23T17:10:05.639Z,39.02
2018-08-23T17:12:33.513Z,39.07
2018-08-23T17:15:00.357Z,39.52
2018-08-23T17:17:25.551Z,39.60
2018-08-23T17:19:52.206Z,39.54
2018-08-23T17:22:18.848Z,39.56
2018-08-23T17:24:45.576Z,39.25
2018-08-23T17:27:12.203Z,38.92
2018-08-23T17:29:40.171Z,38.85
2018-08-23T17:32:05.445Z,38.80
2018-08-23T17:34:32.103Z,38.61
2018-08-23T17:36:58.760Z,38.62
2018-08-23T17:39:25.476Z,38.57
2018-08-23T17:41:52.112Z,38.54
2018-08-23T17:44:18.757Z,38.51
2018-08-23T17:46:45.412Z,38.37
2018-08-23T17:49:12.086Z,38.56
2018-08-23T17:51:38.723Z,38.40
2018-08-23T17:54:05.412Z,38.47
2018-08-23T17:56:32.064Z,38.47
2018-08-23T17:58:58.668Z,38.46
2018-08-23T18:01:25.399Z,38.45
2018-08-23T18:03:52.138Z,38.43
2018-08-23T18:06:18.798Z,38.52
2018-08-23T18:08:47.383Z,38.43
2018-08-23T18:11:12.080Z,38.53
2018-08-23T18:13:38.746Z,38.54
2018-08-23T18:16:05.383Z,38.55
2018-08-23T18:18:32.043Z,38.58
2018-08-23T18:20:58.745Z,38.77
2018-08-23T18:23:25.402Z,38.78
2018-08-23T18:25:52.046Z,38.65
2018-08-23T18:28:18.699Z,38.78
2018-08-23T18:30:45.355Z,38.84
2018-08-23T18:33:12.056Z,38.81
2018-08-23T18:35:38.779Z,38.87
2018-08-23T18:38:05.366Z,38.92
2018-08-23T18:40:35.340Z,39.02
2018-08-23T18:43:01.976Z,38.87
2018-08-23T18:45:28.670Z,38.98
2018-08-23T18:47:55.330Z,38.98
2018-08-23T18:50:22.015Z,39.10
2018-08-23T18:52:50.772Z,39.15
2018-08-23T18:55:15.346Z,39.22
2018-08-23T18:57:42.051Z,39.14
2018-08-23T19:00:08.877Z,39.22
2018-08-23T19:02:35.365Z,39.22
2018-08-23T19:05:02.012Z,39.31
2018-08-23T19:07:31.957Z,39.27
2018-08-23T19:09:58.632Z,39.25
2018-08-23T19:12:25.245Z,39.31
2018-08-23T19:14:51.889Z,39.36
2018-08-23T19:17:18.636Z,39.36
2018-08-23T19:19:45.295Z,39.24
2018-08-23T19:22:11.979Z,39.35
2018-08-23T19:24:40.019Z,39.23
2018-08-23T19:27:05.261Z,39.33
2018-08-23T19:29:31.905Z,39.35
2018-08-23T19:31:58.600Z,39.38
2018-08-23T19:34:25.267Z,39.40
2018-08-23T19:36:51.918Z,39.42
2018-08-23T19:39:18.684Z,39.35
2018-08-23T19:41:45.361Z,39.46
2018-08-23T19:44:12.001Z,39.40
2018-08-23T19:46:38.691Z,39.34
2018-08-23T19:49:05.461Z,39.44
2018-08-23T19:51:32.156Z,39.44
2018-08-23T19:53:58.824Z,39.41
2018-08-23T19:56:25.460Z,39.40
2018-08-23T19:58:52.084Z,39.41
2018-08-23T20:01:21.898Z,39.41
2018-08-23T20:03:48.550Z,39.51
2018-08-23T20:06:15.229Z,39.53
2018-08-23T20:08:41.852Z,39.53
2018-08-23T20:11:09.181Z,39.50
2018-08-23T20:13:35.860Z,39.45
2018-08-23T20:16:06.308Z,39.54
2018-08-23T20:18:32.923Z,39.55
2018-08-23T20:20:59.609Z,39.54
2018-08-23T20:23:26.318Z,39.50
2018-08-23T20:25:53.084Z,39.53
2018-08-23T20:28:19.731Z,39.54
2018-08-23T20:30:46.417Z,39.58
2018-08-23T20:33:13.089Z,39.59
2018-08-23T20:35:39.737Z,39.53
2018-08-23T20:38:06.449Z,39.61
2018-08-23T20:40:33.161Z,39.58
2018-08-23T20:43:01.318Z,39.56
2018-08-23T20:45:26.564Z,39.64
2018-08-23T20:47:53.135Z,39.52
2018-08-23T20:50:19.902Z,39.60
2018-08-23T20:52:46.569Z,39.73
2018-08-23T20:55:13.203Z,39.64
2018-08-23T20:57:39.860Z,39.66
2018-08-23T21:00:06.540Z,39.75
2018-08-23T21:02:33.190Z,39.84
2018-08-23T21:05:02.881Z,39.79
2018-08-23T21:07:29.535Z,39.83
2018-08-23T21:09:58.132Z,39.81
2018-08-23T21:12:22.917Z,39.84
2018-08-23T21:14:49.687Z,39.92
2018-08-23T21:17:16.322Z,39.93
2018-08-23T21:19:42.973Z,39.92
2018-08-23T21:22:09.637Z,39.95
2018-08-23T21:24:36.334Z,40.04
2018-08-23T21:27:03.373Z,40.02
2018-08-23T21:29:30.115Z,40.05
2018-08-23T21:32:02.689Z,40.07
2018-08-23T21:34:29.425Z,40.12
2018-08-23T21:36:56.069Z,40.18
2018-08-23T21:39:22.756Z,40.12
2018-08-23T21:41:49.401Z,40.18
2018-08-23T21:44:16.033Z,40.21
2018-08-23T21:46:42.681Z,40.23
2018-08-23T21:49:09.333Z,40.32
2018-08-23T21:51:36.037Z,40.24
2018-08-23T21:54:02.624Z,40.19
2018-08-23T21:56:29.309Z,40.36
2018-08-23T21:58:55.957Z,40.39
2018-08-23T22:01:22.667Z,40.37
2018-08-23T22:03:49.314Z,40.44
2018-08-23T22:06:15.984Z,40.52
2018-08-23T22:08:43.386Z,40.55
2018-08-23T22:11:10.024Z,40.54
2018-08-23T22:13:37.900Z,40.51
2018-08-23T22:16:03.392Z,40.57
2018-08-23T22:18:30.040Z,40.61
2018-08-23T22:20:56.688Z,40.63
2018-08-23T22:23:23.433Z,40.65
2018-08-23T22:25:50.168Z,40.69
2018-08-23T22:28:16.864Z,40.68
2018-08-23T22:30:43.522Z,40.72
2018-08-23T22:33:10.160Z,40.77
2018-08-23T22:35:36.800Z,40.85
2018-08-23T22:38:03.436Z,40.86
2018-08-23T22:40:30.141Z,40.88
2018-08-23T22:42:56.783Z,40.82
2018-08-23T22:45:23.428Z,40.87
2018-08-23T22:47:50.082Z,40.88
2018-08-23T22:50:16.729Z,40.92
2018-08-23T22:52:43.384Z,40.91
2018-08-23T22:55:10.059Z,40.93
2018-08-23T22:57:36.815Z,40.90
2018-08-23T23:00:03.453Z,40.87
2018-08-23T23:02:30.142Z,40.89
2018-08-23T23:04:56.782Z,40.84
2018-08-23T23:07:23.458Z,40.84
2018-08-23T23:09:50.189Z,40.90
2018-08-23T23:12:16.837Z,40.94
2018-08-23T23:14:43.621Z,40.90
2018-08-23T23:17:10.311Z,40.87
2018-08-23T23:19:36.963Z,40.91
2018-08-23T23:22:03.686Z,40.88
2018-08-23T23:24:30.403Z,40.84
2018-08-23T23:26:56.998Z,40.90
2018-08-23T23:29:23.676Z,40.83
2018-08-23T23:31:50.313Z,40.78
2018-08-23T23:34:19.500Z,40.81
2018-08-23T23:36:46.230Z,40.71
2018-08-23T23:39:12.849Z,40.80
2018-08-23T23:41:39.492Z,40.74
2018-08-23T23:44:06.256Z,40.79
2018-08-23T23:46:32.892Z,40.70
2018-08-23T23:48:59.664Z,40.74
2018-08-23T23:51:26.312Z,40.73
2018-08-23T23:53:52.982Z,40.73
2018-08-23T23:56:19.684Z,40.73
2018-08-23T23:58:46.353Z,40.76
